Oxdrift, Canada
Current Conditions -  °F | °C
As of 4:00 AM on Sunday 26 Oct 2014 (Local Time) from CYHD Reporting Station
Clear Clear  
Wind Chill: 23°   Ceiling: Unl
Heat Index: 30°   Visibility: 9mi
Dew Point: 28°   Wind: 7mph
Humidity: 93%   Direction: 280°W
Pressure: 29.92"   Gusts: NA
Location:  49.82°N, 92.98°W
Report Text: CYHD 260900Z AUTO 28006KT 9SM CLR M01/M02 A2992 RMK SLP154
Loading
Personal Weather Stations






























Interactive Weather Map
Tropical Storm Tracking
New forecast layout! Learn more

10-Day Weather Forecast

Advertisements
Track Severe Weather on mobile